sensor_id;sensor_type;location;lat;lon;timestamp;temperature;humidity
6810;DHT22;3443;48.812;9.112;2023-05-07T12:23:05;21.10;99.90
6810;DHT22;3443;48.812;9.112;2023-05-07T12:25:35;20.90;99.90
6810;DHT22;3443;48.812;9.112;2023-05-07T12:28:01;20.60;99.90
6810;DHT22;3443;48.812;9.112;2023-05-07T12:30:27;20.20;99.90
6810;DHT22;3443;48.812;9.112;2023-05-07T12:32:54;19.80;99.90
6810;DHT22;3443;48.812;9.112;2023-05-07T12:35:27;19.60;99.90
6810;DHT22;3443;48.812;9.112;2023-05-07T12:37:57;19.30;99.90
6810;DHT22;3443;48.812;9.112;2023-05-07T12:40:29;19.10;99.90
6810;DHT22;3443;48.812;9.112;2023-05-07T12:43:00;18.90;99.90
6810;DHT22;3443;48.812;9.112;2023-05-07T12:45:26;19.10;99.90
6810;DHT22;3443;48.812;9.112;2023-05-07T12:47:51;18.80;99.90
6810;DHT22;3443;48.812;9.112;2023-05-07T12:50:17;18.70;99.90
6810;DHT22;3443;48.812;9.112;2023-05-07T12:52:45;18.60;99.90
6810;DHT22;3443;48.812;9.112;2023-05-07T12:55:13;18.60;99.90
6810;DHT22;3443;48.812;9.112;2023-05-07T12:57:45;18.40;99.90
6810;DHT22;3443;48.812;9.112;2023-05-07T13:00:11;18.50;99.90
6810;DHT22;3443;48.812;9.112;2023-05-07T13:05:07;18.20;99.90
6810;DHT22;3443;48.812;9.112;2023-05-07T13:07:33;18.10;99.90
6810;DHT22;3443;48.812;9.112;2023-05-07T13:09:59;18.00;99.90
6810;DHT22;3443;48.812;9.112;2023-05-07T13:12:24;18.00;99.90
6810;DHT22;3443;48.812;9.112;2023-05-07T13:14:50;17.90;99.90
6810;DHT22;3443;48.812;9.112;2023-05-07T13:17:15;17.80;99.90
6810;DHT22;3443;48.812;9.112;2023-05-07T13:19:41;17.70;99.90
6810;DHT22;3443;48.812;9.112;2023-05-07T13:22:07;17.70;99.90
6810;DHT22;3443;48.812;9.112;2023-05-07T13:24:32;17.60;99.90
6810;DHT22;3443;48.812;9.112;2023-05-07T13:26:58;17.40;99.90
6810;DHT22;3443;48.812;9.112;2023-05-07T13:29:23;17.10;99.90
6810;DHT22;3443;48.812;9.112;2023-05-07T13:31:58;17.00;99.90
6810;DHT22;3443;48.812;9.112;2023-05-07T13:34:24;16.90;99.90
6810;DHT22;3443;48.812;9.112;2023-05-07T13:36:49;16.70;99.90
6810;DHT22;3443;48.812;9.112;2023-05-07T13:39:15;16.60;99.90
6810;DHT22;3443;48.812;9.112;2023-05-07T13:41:41;16.60;99.90
6810;DHT22;3443;48.812;9.112;2023-05-07T13:44:06;16.50;99.90
6810;DHT22;3443;48.812;9.112;2023-05-07T13:46:32;16.50;99.90
6810;DHT22;3443;48.812;9.112;2023-05-07T13:48:57;16.60;99.90
6810;DHT22;3443;48.812;9.112;2023-05-07T13:51:23;16.60;99.90
6810;DHT22;3443;48.812;9.112;2023-05-07T13:53:49;16.70;99.90
6810;DHT22;3443;48.812;9.112;2023-05-07T13:56:14;16.60;99.90
6810;DHT22;3443;48.812;9.112;2023-05-07T13:58:40;16.70;99.90
6810;DHT22;3443;48.812;9.112;2023-05-07T14:01:06;16.80;99.90
6810;DHT22;3443;48.812;9.112;2023-05-07T14:03:31;16.80;99.90
6810;DHT22;3443;48.812;9.112;2023-05-07T14:05:59;16.80;99.90
6810;DHT22;3443;48.812;9.112;2023-05-07T14:08:26;16.60;99.90
6810;DHT22;3443;48.812;9.112;2023-05-07T14:10:52;16.40;99.90
6810;DHT22;3443;48.812;9.112;2023-05-07T14:13:18;16.30;99.90
6810;DHT22;3443;48.812;9.112;2023-05-07T14:15:43;16.30;99.90
6810;DHT22;3443;48.812;9.112;2023-05-07T14:18:14;16.30;99.90
6810;DHT22;3443;48.812;9.112;2023-05-07T14:20:40;16.30;99.90
6810;DHT22;3443;48.812;9.112;2023-05-07T14:23:06;16.40;99.90
6810;DHT22;3443;48.812;9.112;2023-05-07T14:25:32;16.40;99.90
6810;DHT22;3443;48.812;9.112;2023-05-07T14:27:57;16.50;99.90
6810;DHT22;3443;48.812;9.112;2023-05-07T14:30:23;16.50;99.90
6810;DHT22;3443;48.812;9.112;2023-05-07T14:32:50;16.30;99.90
6810;DHT22;3443;48.812;9.112;2023-05-07T14:35:15;16.20;99.90
6810;DHT22;3443;48.812;9.112;2023-05-07T14:37:41;16.20;99.90
6810;DHT22;3443;48.812;9.112;2023-05-07T14:40:07;16.20;99.90
6810;DHT22;3443;48.812;9.112;2023-05-07T14:42:33;16.10;99.90
6810;DHT22;3443;48.812;9.112;2023-05-07T14:44:58;16.20;99.90
6810;DHT22;3443;48.812;9.112;2023-05-07T14:49:50;16.20;99.90
6810;DHT22;3443;48.812;9.112;2023-05-07T14:52:16;16.30;99.90
6810;DHT22;3443;48.812;9.112;2023-05-07T14:54:42;16.30;99.90
6810;DHT22;3443;48.812;9.112;2023-05-07T14:57:08;16.40;99.90
6810;DHT22;3443;48.812;9.112;2023-05-07T14:59:35;16.50;99.90
6810;DHT22;3443;48.812;9.112;2023-05-07T15:02:01;16.70;99.90
6810;DHT22;3443;48.812;9.112;2023-05-07T15:04:26;16.80;99.90
6810;DHT22;3443;48.812;9.112;2023-05-07T15:06:52;16.80;99.90
6810;DHT22;3443;48.812;9.112;2023-05-07T15:09:19;16.90;99.90
6810;DHT22;3443;48.812;9.112;2023-05-07T15:11:45;17.00;99.90
6810;DHT22;3443;48.812;9.112;2023-05-07T15:14:10;17.00;99.90
6810;DHT22;3443;48.812;9.112;2023-05-07T15:16:36;17.00;99.90
6810;DHT22;3443;48.812;9.112;2023-05-07T15:19:01;17.20;99.90
6810;DHT22;3443;48.812;9.112;2023-05-07T15:21:27;17.20;99.90
6810;DHT22;3443;48.812;9.112;2023-05-07T15:23:52;17.30;99.90
6810;DHT22;3443;48.812;9.112;2023-05-07T15:26:18;17.30;99.90
6810;DHT22;3443;48.812;9.112;2023-05-07T15:28:43;17.10;99.90
6810;DHT22;3443;48.812;9.112;2023-05-07T15:31:09;17.00;99.90
6810;DHT22;3443;48.812;9.112;2023-05-07T15:33:35;17.00;99.90
6810;DHT22;3443;48.812;9.112;2023-05-07T15:36:00;17.00;99.90
6810;DHT22;3443;48.812;9.112;2023-05-07T15:38:28;16.80;99.90
6810;DHT22;3443;48.812;9.112;2023-05-07T15:40:54;17.00;99.90
6810;DHT22;3443;48.812;9.112;2023-05-07T15:43:19;17.10;99.90
6810;DHT22;3443;48.812;9.112;2023-05-07T15:45:45;17.20;99.90
6810;DHT22;3443;48.812;9.112;2023-05-07T15:48:11;17.40;99.90
6810;DHT22;3443;48.812;9.112;2023-05-07T15:50:37;17.30;99.90
6810;DHT22;3443;48.812;9.112;2023-05-07T15:53:03;17.30;99.90
6810;DHT22;3443;48.812;9.112;2023-05-07T15:55:30;17.40;99.90
6810;DHT22;3443;48.812;9.112;2023-05-07T15:57:56;17.50;99.90
6810;DHT22;3443;48.812;9.112;2023-05-07T16:00:25;17.60;99.90
6810;DHT22;3443;48.812;9.112;2023-05-07T16:02:51;17.50;99.90
6810;DHT22;3443;48.812;9.112;2023-05-07T16:05:17;17.30;99.90
6810;DHT22;3443;48.812;9.112;2023-05-07T16:07:42;17.20;99.90
6810;DHT22;3443;48.812;9.112;2023-05-07T16:10:09;17.30;99.90
6810;DHT22;3443;48.812;9.112;2023-05-07T16:12:35;17.30;99.90
6810;DHT22;3443;48.812;9.112;2023-05-07T16:15:01;17.30;99.90
6810;DHT22;3443;48.812;9.112;2023-05-07T16:17:27;17.30;99.90
6810;DHT22;3443;48.812;9.112;2023-05-07T16:19:53;17.30;99.90
6810;DHT22;3443;48.812;9.112;2023-05-07T16:22:18;17.50;99.90
6810;DHT22;3443;48.812;9.112;2023-05-07T16:24:44;17.40;99.90
6810;DHT22;3443;48.812;9.112;2023-05-07T16:27:10;17.40;99.90
6810;DHT22;3443;48.812;9.112;2023-05-07T16:29:36;17.50;99.90
6810;DHT22;3443;48.812;9.112;2023-05-07T16:32:02;17.40;99.90
6810;DHT22;3443;48.812;9.112;2023-05-07T16:34:27;17.30;99.90
6810;DHT22;3443;48.812;9.112;2023-05-07T16:36:53;17.20;99.90
6810;DHT22;3443;48.812;9.112;2023-05-07T16:39:18;17.10;99.90
6810;DHT22;3443;48.812;9.112;2023-05-07T16:41:44;17.00;99.90
6810;DHT22;3443;48.812;9.112;2023-05-07T16:44:13;16.90;99.90
6810;DHT22;3443;48.812;9.112;2023-05-07T16:46:39;16.80;99.90
6810;DHT22;3443;48.812;9.112;2023-05-07T16:49:04;16.80;99.90
6810;DHT22;3443;48.812;9.112;2023-05-07T16:51:32;16.90;99.90
6810;DHT22;3443;48.812;9.112;2023-05-07T16:53:58;16.90;99.90
6810;DHT22;3443;48.812;9.112;2023-05-07T16:56:23;17.00;99.90
6810;DHT22;3443;48.812;9.112;2023-05-07T16:58:49;16.90;99.90
6810;DHT22;3443;48.812;9.112;2023-05-07T17:01:14;17.00;99.90
6810;DHT22;3443;48.812;9.112;2023-05-07T17:03:41;17.10;99.90
6810;DHT22;3443;48.812;9.112;2023-05-07T17:06:06;17.10;99.90
6810;DHT22;3443;48.812;9.112;2023-05-07T17:08:38;17.10;99.90
6810;DHT22;3443;48.812;9.112;2023-05-07T17:11:03;17.00;99.90
6810;DHT22;3443;48.812;9.112;2023-05-07T17:13:29;17.00;99.90
6810;DHT22;3443;48.812;9.112;2023-05-07T17:15:54;17.10;99.90
6810;DHT22;3443;48.812;9.112;2023-05-07T17:18:20;17.10;99.90
6810;DHT22;3443;48.812;9.112;2023-05-07T17:20:45;17.20;99.90
6810;DHT22;3443;48.812;9.112;2023-05-07T17:23:11;17.20;99.90
6810;DHT22;3443;48.812;9.112;2023-05-07T17:25:37;17.20;99.90
6810;DHT22;3443;48.812;9.112;2023-05-07T17:28:03;17.20;99.90
6810;DHT22;3443;48.812;9.112;2023-05-07T17:30:29;17.20;99.90
6810;DHT22;3443;48.812;9.112;2023-05-07T17:32:54;17.30;99.90
6810;DHT22;3443;48.812;9.112;2023-05-07T17:35:21;17.10;99.90
6810;DHT22;3443;48.812;9.112;2023-05-07T17:37:47;17.10;99.90
6810;DHT22;3443;48.812;9.112;2023-05-07T17:40:18;17.10;99.90
6810;DHT22;3443;48.812;9.112;2023-05-07T17:42:44;17.00;99.90
6810;DHT22;3443;48.812;9.112;2023-05-07T17:45:09;16.80;99.90
6810;DHT22;3443;48.812;9.112;2023-05-07T17:47:35;16.90;99.90
6810;DHT22;3443;48.812;9.112;2023-05-07T17:50:01;16.80;99.90
6810;DHT22;3443;48.812;9.112;2023-05-07T17:52:27;16.90;99.90
6810;DHT22;3443;48.812;9.112;2023-05-07T17:54:52;16.90;99.90
6810;DHT22;3443;48.812;9.112;2023-05-07T17:57:18;16.80;99.90
6810;DHT22;3443;48.812;9.112;2023-05-07T17:59:44;16.80;99.90
6810;DHT22;3443;48.812;9.112;2023-05-07T18:02:10;16.80;99.90
6810;DHT22;3443;48.812;9.112;2023-05-07T18:04:35;16.80;99.90
6810;DHT22;3443;48.812;9.112;2023-05-07T18:07:01;16.80;99.90
6810;DHT22;3443;48.812;9.112;2023-05-07T18:09:27;16.70;99.90
6810;DHT22;3443;48.812;9.112;2023-05-07T18:11:52;16.60;99.90
6810;DHT22;3443;48.812;9.112;2023-05-07T18:14:18;16.40;99.90
6810;DHT22;3443;48.812;9.112;2023-05-07T18:16:48;16.20;99.90
6810;DHT22;3443;48.812;9.112;2023-05-07T18:19:13;16.20;99.90
6810;DHT22;3443;48.812;9.112;2023-05-07T18:21:39;16.10;99.90
6810;DHT22;3443;48.812;9.112;2023-05-07T18:24:05;16.10;99.90
6810;DHT22;3443;48.812;9.112;2023-05-07T18:26:31;16.20;99.90
6810;DHT22;3443;48.812;9.112;2023-05-07T18:28:56;16.30;99.90
6810;DHT22;3443;48.812;9.112;2023-05-07T18:31:22;16.20;99.90
6810;DHT22;3443;48.812;9.112;2023-05-07T18:33:50;16.10;99.90
6810;DHT22;3443;48.812;9.112;2023-05-07T18:36:16;16.20;99.90
6810;DHT22;3443;48.812;9.112;2023-05-07T18:38:42;16.10;99.90
6810;DHT22;3443;48.812;9.112;2023-05-07T18:41:07;16.00;99.90
6810;DHT22;3443;48.812;9.112;2023-05-07T18:43:33;15.90;99.90
6810;DHT22;3443;48.812;9.112;2023-05-07T18:45:59;15.80;99.90
6810;DHT22;3443;48.812;9.112;2023-05-07T18:48:24;15.80;99.90
6810;DHT22;3443;48.812;9.112;2023-05-07T18:50:50;15.80;99.90
6810;DHT22;3443;48.812;9.112;2023-05-07T18:53:15;15.80;99.90
6810;DHT22;3443;48.812;9.112;2023-05-07T18:55:41;15.80;99.90
6810;DHT22;3443;48.812;9.112;2023-05-07T18:58:10;15.70;99.90
6810;DHT22;3443;48.812;9.112;2023-05-07T19:00:36;15.70;99.90
6810;DHT22;3443;48.812;9.112;2023-05-07T19:03:01;15.70;99.90
6810;DHT22;3443;48.812;9.112;2023-05-07T19:05:27;15.60;99.90
6810;DHT22;3443;48.812;9.112;2023-05-07T19:07:52;15.60;99.90
6810;DHT22;3443;48.812;9.112;2023-05-07T19:10:18;15.60;99.90
6810;DHT22;3443;48.812;9.112;2023-05-07T19:12:43;15.60;99.90
6810;DHT22;3443;48.812;9.112;2023-05-07T19:15:09;15.70;99.90
6810;DHT22;3443;48.812;9.112;2023-05-07T19:17:35;15.70;99.90
6810;DHT22;3443;48.812;9.112;2023-05-07T19:20:01;15.70;99.90
6810;DHT22;3443;48.812;9.112;2023-05-07T19:22:28;15.70;99.90
6810;DHT22;3443;48.812;9.112;2023-05-07T19:24:54;15.70;99.90
6810;DHT22;3443;48.812;9.112;2023-05-07T19:27:19;15.80;99.90
6810;DHT22;3443;48.812;9.112;2023-05-07T19:29:45;15.80;99.90
6810;DHT22;3443;48.812;9.112;2023-05-07T19:32:10;15.80;99.90
6810;DHT22;3443;48.812;9.112;2023-05-07T19:34:36;15.80;99.90
6810;DHT22;3443;48.812;9.112;2023-05-07T19:37:03;15.80;99.90
6810;DHT22;3443;48.812;9.112;2023-05-07T19:39:29;15.80;99.90
6810;DHT22;3443;48.812;9.112;2023-05-07T19:41:55;15.80;99.90
6810;DHT22;3443;48.812;9.112;2023-05-07T19:44:20;15.80;99.90
6810;DHT22;3443;48.812;9.112;2023-05-07T19:46:46;15.70;99.90
6810;DHT22;3443;48.812;9.112;2023-05-07T19:49:12;15.70;99.90
6810;DHT22;3443;48.812;9.112;2023-05-07T19:51:38;15.70;99.90
6810;DHT22;3443;48.812;9.112;2023-05-07T19:54:03;15.70;99.90
6810;DHT22;3443;48.812;9.112;2023-05-07T19:56:29;15.70;99.90
6810;DHT22;3443;48.812;9.112;2023-05-07T19:58:55;15.70;99.90
6810;DHT22;3443;48.812;9.112;2023-05-07T20:01:20;15.70;99.90
6810;DHT22;3443;48.812;9.112;2023-05-07T20:03:46;15.70;99.90
6810;DHT22;3443;48.812;9.112;2023-05-07T20:06:12;15.70;99.90
6810;DHT22;3443;48.812;9.112;2023-05-07T20:08:37;15.70;99.90
6810;DHT22;3443;48.812;9.112;2023-05-07T20:11:03;15.70;99.90
6810;DHT22;3443;48.812;9.112;2023-05-07T20:13:28;15.70;99.90
6810;DHT22;3443;48.812;9.112;2023-05-07T20:15:58;15.70;99.90
6810;DHT22;3443;48.812;9.112;2023-05-07T20:18:26;15.70;99.90
6810;DHT22;3443;48.812;9.112;2023-05-07T20:20:52;15.60;99.90
6810;DHT22;3443;48.812;9.112;2023-05-07T20:23:17;15.60;99.90
6810;DHT22;3443;48.812;9.112;2023-05-07T20:25:43;15.60;99.90
6810;DHT22;3443;48.812;9.112;2023-05-07T20:28:08;15.60;99.90
6810;DHT22;3443;48.812;9.112;2023-05-07T20:30:34;15.60;99.90
6810;DHT22;3443;48.812;9.112;2023-05-07T20:32:59;15.60;99.90
6810;DHT22;3443;48.812;9.112;2023-05-07T20:35:25;15.60;99.90
6810;DHT22;3443;48.812;9.112;2023-05-07T20:37:51;15.50;99.90
6810;DHT22;3443;48.812;9.112;2023-05-07T20:40:17;15.50;99.90
6810;DHT22;3443;48.812;9.112;2023-05-07T20:42:42;15.50;99.90
6810;DHT22;3443;48.812;9.112;2023-05-07T20:45:08;15.50;99.90
6810;DHT22;3443;48.812;9.112;2023-05-07T20:47:34;15.50;99.90
6810;DHT22;3443;48.812;9.112;2023-05-07T20:50:00;15.50;99.90
6810;DHT22;3443;48.812;9.112;2023-05-07T20:52:26;15.50;99.90
6810;DHT22;3443;48.812;9.112;2023-05-07T20:54:51;15.50;99.90
6810;DHT22;3443;48.812;9.112;2023-05-07T20:57:17;15.60;99.90
6810;DHT22;3443;48.812;9.112;2023-05-07T20:59:44;15.50;99.90
6810;DHT22;3443;48.812;9.112;2023-05-07T21:02:09;15.40;99.90
6810;DHT22;3443;48.812;9.112;2023-05-07T21:04:35;15.30;99.90
6810;DHT22;3443;48.812;9.112;2023-05-07T21:07:01;15.30;99.90
6810;DHT22;3443;48.812;9.112;2023-05-07T21:09:26;15.30;99.90
6810;DHT22;3443;48.812;9.112;2023-05-07T21:11:52;15.30;99.90
6810;DHT22;3443;48.812;9.112;2023-05-07T21:14:18;15.40;99.90
6810;DHT22;3443;48.812;9.112;2023-05-07T21:16:44;15.40;99.90
6810;DHT22;3443;48.812;9.112;2023-05-07T21:19:10;15.30;99.90
6810;DHT22;3443;48.812;9.112;2023-05-07T21:21:36;15.30;99.90
6810;DHT22;3443;48.812;9.112;2023-05-07T21:24:01;15.30;99.90
6810;DHT22;3443;48.812;9.112;2023-05-07T21:26:27;15.30;99.90
6810;DHT22;3443;48.812;9.112;2023-05-07T21:28:52;15.40;99.90
6810;DHT22;3443;48.812;9.112;2023-05-07T21:31:18;15.40;99.90
6810;DHT22;3443;48.812;9.112;2023-05-07T21:33:44;15.40;99.90
6810;DHT22;3443;48.812;9.112;2023-05-07T21:36:10;15.40;99.90
6810;DHT22;3443;48.812;9.112;2023-05-07T21:38:39;15.40;99.90
6810;DHT22;3443;48.812;9.112;2023-05-07T21:41:05;15.40;99.90
6810;DHT22;3443;48.812;9.112;2023-05-07T21:43:31;15.30;99.90
6810;DHT22;3443;48.812;9.112;2023-05-07T21:45:57;15.30;99.90
6810;DHT22;3443;48.812;9.112;2023-05-07T21:48:25;15.30;99.90
6810;DHT22;3443;48.812;9.112;2023-05-07T21:51:05;15.30;99.90
6810;DHT22;3443;48.812;9.112;2023-05-07T21:53:31;15.20;99.90
6810;DHT22;3443;48.812;9.112;2023-05-07T21:55:56;15.30;99.90
6810;DHT22;3443;48.812;9.112;2023-05-07T21:58:24;15.30;99.90
6810;DHT22;3443;48.812;9.112;2023-05-07T22:00:50;15.40;99.90
6810;DHT22;3443;48.812;9.112;2023-05-07T22:03:16;15.40;99.90
6810;DHT22;3443;48.812;9.112;2023-05-07T22:05:41;15.40;99.90
6810;DHT22;3443;48.812;9.112;2023-05-07T22:08:07;15.40;99.90
6810;DHT22;3443;48.812;9.112;2023-05-07T22:10:33;15.40;99.90
6810;DHT22;3443;48.812;9.112;2023-05-07T22:12:58;15.50;99.90
6810;DHT22;3443;48.812;9.112;2023-05-07T22:15:24;15.50;99.90
6810;DHT22;3443;48.812;9.112;2023-05-07T22:17:50;15.40;99.90
6810;DHT22;3443;48.812;9.112;2023-05-07T22:20:15;15.40;99.90
6810;DHT22;3443;48.812;9.112;2023-05-07T22:22:51;15.40;99.90
6810;DHT22;3443;48.812;9.112;2023-05-07T22:25:17;15.40;99.90
6810;DHT22;3443;48.812;9.112;2023-05-07T22:27:43;15.40;99.90
6810;DHT22;3443;48.812;9.112;2023-05-07T22:30:09;15.50;99.90
6810;DHT22;3443;48.812;9.112;2023-05-07T22:32:35;15.40;99.90
6810;DHT22;3443;48.812;9.112;2023-05-07T22:35:02;15.40;99.90
6810;DHT22;3443;48.812;9.112;2023-05-07T22:37:28;15.30;99.90
6810;DHT22;3443;48.812;9.112;2023-05-07T22:39:53;15.50;99.90
6810;DHT22;3443;48.812;9.112;2023-05-07T22:42:19;15.40;99.90
6810;DHT22;3443;48.812;9.112;2023-05-07T22:44:44;15.40;99.90
6810;DHT22;3443;48.812;9.112;2023-05-07T22:47:10;15.40;99.90
6810;DHT22;3443;48.812;9.112;2023-05-07T22:49:36;15.30;99.90
6810;DHT22;3443;48.812;9.112;2023-05-07T22:52:01;15.30;99.90
6810;DHT22;3443;48.812;9.112;2023-05-07T22:54:27;15.30;99.90
6810;DHT22;3443;48.812;9.112;2023-05-07T22:56:53;15.30;99.90
6810;DHT22;3443;48.812;9.112;2023-05-07T22:59:19;15.40;99.90
6810;DHT22;3443;48.812;9.112;2023-05-07T23:01:45;15.30;99.90
6810;DHT22;3443;48.812;9.112;2023-05-07T23:04:11;15.30;99.90
6810;DHT22;3443;48.812;9.112;2023-05-07T23:06:37;15.30;99.90
6810;DHT22;3443;48.812;9.112;2023-05-07T23:09:03;15.30;99.90
6810;DHT22;3443;48.812;9.112;2023-05-07T23:11:29;15.30;99.90
6810;DHT22;3443;48.812;9.112;2023-05-07T23:13:54;15.30;99.90
6810;DHT22;3443;48.812;9.112;2023-05-07T23:16:20;15.30;99.90
6810;DHT22;3443;48.812;9.112;2023-05-07T23:18:46;15.30;99.90
6810;DHT22;3443;48.812;9.112;2023-05-07T23:21:12;15.30;99.90
6810;DHT22;3443;48.812;9.112;2023-05-07T23:23:38;15.30;99.90
6810;DHT22;3443;48.812;9.112;2023-05-07T23:26:03;15.30;99.90
6810;DHT22;3443;48.812;9.112;2023-05-07T23:28:29;15.30;99.90
6810;DHT22;3443;48.812;9.112;2023-05-07T23:30:55;15.20;99.90
6810;DHT22;3443;48.812;9.112;2023-05-07T23:33:20;15.20;99.90
6810;DHT22;3443;48.812;9.112;2023-05-07T23:35:46;15.10;99.90
6810;DHT22;3443;48.812;9.112;2023-05-07T23:38:11;15.20;99.90
6810;DHT22;3443;48.812;9.112;2023-05-07T23:40:37;15.10;99.90
6810;DHT22;3443;48.812;9.112;2023-05-07T23:43:02;15.10;99.90
6810;DHT22;3443;48.812;9.112;2023-05-07T23:45:28;15.00;99.90
6810;DHT22;3443;48.812;9.112;2023-05-07T23:47:53;15.00;99.90
6810;DHT22;3443;48.812;9.112;2023-05-07T23:50:19;15.00;99.90
6810;DHT22;3443;48.812;9.112;2023-05-07T23:52:45;15.10;99.90
6810;DHT22;3443;48.812;9.112;2023-05-07T23:55:10;15.10;99.90
6810;DHT22;3443;48.812;9.112;2023-05-07T23:57:36;15.10;99.90
